Aviation Digital Data Service (ADDS)

Output produced by METARs form (0223 UTC 22 February 2019)
found at http://www.aviationweather.gov/metar/data/
 
METAR text: FZAA 220200Z 24004KT 8000 SCT016 BKN100 22/21 Q1016 NOSIG
Conditions at: FZAA (KINSHASA/N'DJILI, CD) observed 0200 UTC 22 February 2019
Temperature: 22.0°C (72°F)
Dewpoint: 21.0°C (70°F) [RH = 94%]
Pressure (altimeter): 30.00 inches Hg (1016.0 mb)
Winds: from the WSW (240 degrees) at 5 MPH (4 knots; 2.1 m/s)
Visibility: 5 miles ( 8 km)
Ceiling: 10000 feet AGL
Clouds: scattered clouds at 1600 feet AGL
broken clouds at 10000 feet AGL
Weather: no significant weather observed at this time

METAR text: FZAA 220100Z 24006KT 8000 SCT016 BKN100 22/21 Q1016 NOSIG
Conditions at: FZAA (KINSHASA/N'DJILI, CD) observed 0100 UTC 22 February 2019
Temperature: 22.0°C (72°F)
Dewpoint: 21.0°C (70°F) [RH = 94%]
Pressure (altimeter): 30.00 inches Hg (1016.0 mb)
Winds: from the WSW (240 degrees) at 7 MPH (6 knots; 3.1 m/s)
Visibility: 5 miles ( 8 km)
Ceiling: 10000 feet AGL
Clouds: scattered clouds at 1600 feet AGL
broken clouds at 10000 feet AGL
Weather: no significant weather observed at this time

METAR text: FZAA 220000Z 26008KT 7000 SCT016 BKN100 22/21 Q1017 RERA NOSIG
Conditions at: FZAA (KINSHASA/N'DJILI, CD) observed 0000 UTC 22 February 2019
Temperature: 22.0°C (72°F)
Dewpoint: 21.0°C (70°F) [RH = 94%]
Pressure (altimeter): 30.03 inches Hg (1017.0 mb)
Winds: from the W (260 degrees) at 9 MPH (8 knots; 4.1 m/s)
Visibility: 4 miles ( 7 km)
Ceiling: 10000 feet AGL
Clouds: scattered clouds at 1600 feet AGL
broken clouds at 10000 feet AGL
Weather: no significant weather observed at this time

METAR text: FZAA 212300Z 26004KT 7000 -RA BKN016 22/20 Q1016 NOSIG
Conditions at: FZAA (KINSHASA/N'DJILI, CD) observed 2300 UTC 21 February 2019
Temperature: 22.0°C (72°F)
Dewpoint: 20.0°C (68°F) [RH = 88%]
Pressure (altimeter): 30.00 inches Hg (1016.0 mb)
Winds: from the W (260 degrees) at 5 MPH (4 knots; 2.1 m/s)
Visibility: 4 miles ( 7 km)
Ceiling: 1600 feet AGL
Clouds: broken clouds at 1600 feet AGL
Weather: -RA  (light rain)

METAR text: FZAA 212200Z 16004KT 7000 SCT016 BKN100 21/20 Q1015 NOSIG
Conditions at: FZAA (KINSHASA/N'DJILI, CD) observed 2200 UTC 21 February 2019
Temperature: 21.0°C (70°F)
Dewpoint: 20.0°C (68°F) [RH = 94%]
Pressure (altimeter): 29.97 inches Hg (1015.0 mb)
Winds: from the SSE (160 degrees) at 5 MPH (4 knots; 2.1 m/s)
Visibility: 4 miles ( 7 km)
Ceiling: 10000 feet AGL
Clouds: scattered clouds at 1600 feet AGL
broken clouds at 10000 feet AGL
Weather: no significant weather observed at this time

METAR text: FZAA 212100Z 00000KT 7000 SCT016 BKN100 21/20 Q1015 NOSIG
Conditions at: FZAA (KINSHASA/N'DJILI, CD) observed 2100 UTC 21 February 2019
Temperature: 21.0°C (70°F)
Dewpoint: 20.0°C (68°F) [RH = 94%]
Pressure (altimeter): 29.97 inches Hg (1015.0 mb)
Winds: calm
Visibility: 4 miles ( 7 km)
Ceiling: 10000 feet AGL
Clouds: scattered clouds at 1600 feet AGL
broken clouds at 10000 feet AGL
Weather: no significant weather observed at this time

METAR text: FZAA 212000Z 00000KT 7000 SCT016 BKN100 21/20 Q1013 NOSIG
Conditions at: FZAA (KINSHASA/N'DJILI, CD) observed 2000 UTC 21 February 2019
Temperature: 21.0°C (70°F)
Dewpoint: 20.0°C (68°F) [RH = 94%]
Pressure (altimeter): 29.91 inches Hg (1013.0 mb)
Winds: calm
Visibility: 4 miles ( 7 km)
Ceiling: 10000 feet AGL
Clouds: scattered clouds at 1600 feet AGL
broken clouds at 10000 feet AGL
Weather: no significant weather observed at this time

METAR text: FZAA 211900Z 19006KT 7000 SCT016 BKN100 21/21 Q1012 NOSIG
Conditions at: FZAA (KINSHASA/N'DJILI, CD) observed 1900 UTC 21 February 2019
Temperature: 21.0°C (70°F)
Dewpoint: 21.0°C (70°F) [RH = 100%]
Pressure (altimeter): 29.88 inches Hg (1012.0 mb)
Winds: from the S (190 degrees) at 7 MPH (6 knots; 3.1 m/s)
Visibility: 4 miles ( 7 km)
Ceiling: 10000 feet AGL
Clouds: scattered clouds at 1600 feet AGL
broken clouds at 10000 feet AGL
Weather: no significant weather observed at this time

METAR text: FZAA 211800Z 00000KT 7000 FEW016 BKN100 21/20 Q1012 NOSIG
Conditions at: FZAA (KINSHASA/N'DJILI, CD) observed 1800 UTC 21 February 2019
Temperature: 21.0°C (70°F)
Dewpoint: 20.0°C (68°F) [RH = 94%]
Pressure (altimeter): 29.88 inches Hg (1012.0 mb)
Winds: calm
Visibility: 4 miles ( 7 km)
Ceiling: 10000 feet AGL
Clouds: few clouds at 1600 feet AGL
broken clouds at 10000 feet AGL
Weather: no significant weather observed at this time

METAR text: FZAA 211700Z 18006KT 6000 SCT016 FEW026CB BKN100 21/20 Q1012 RETS NOSIG
Conditions at: FZAA (KINSHASA/N'DJILI, CD) observed 1700 UTC 21 February 2019
Temperature: 21.0°C (70°F)
Dewpoint: 20.0°C (68°F) [RH = 94%]
Pressure (altimeter): 29.88 inches Hg (1012.0 mb)
Winds: from the S (180 degrees) at 7 MPH (6 knots; 3.1 m/s)
Visibility: 4 miles ( 6 km)
Ceiling: 10000 feet AGL
Clouds: scattered clouds at 1600 feet AGL
few clouds at 2600 feet AGL
broken clouds at 10000 feet AGL
Weather: no significant weather observed at this time

METAR text: FZAA 211600Z 09006KT 4000 -TSRA SCT014 FEW026CB BKN080 21/20 Q1013 NOSIG
Conditions at: FZAA (KINSHASA/N'DJILI, CD) observed 1600 UTC 21 February 2019
Temperature: 21.0°C (70°F)
Dewpoint: 20.0°C (68°F) [RH = 94%]
Pressure (altimeter): 29.91 inches Hg (1013.0 mb)
Winds: from the E (90 degrees) at 7 MPH (6 knots; 3.1 m/s)
Visibility: 2.49 miles (4.01 km)
Ceiling: 8000 feet AGL
Clouds: scattered clouds at 1400 feet AGL
few clouds at 2600 feet AGL
broken clouds at 8000 feet AGL
Weather: -TSRA  (light rain associated with thunderstorm(s))

METAR text: FZAA 211510Z 06018KT 2000 -TSRA SCT014 FEW026CB OVC080 22/22 Q1015 NOSIG
Conditions at: FZAA (KINSHASA/N'DJILI, CD) observed 1510 UTC 21 February 2019
Temperature: 22.0°C (72°F)
Dewpoint: 22.0°C (72°F) [RH = 100%]
Pressure (altimeter): 29.97 inches Hg (1015.0 mb)
Winds: from the ENE (60 degrees) at 21 MPH (18 knots; 9.3 m/s)
Visibility: 1.24 miles (2.00 km)
Ceiling: 8000 feet AGL
Clouds: scattered clouds at 1400 feet AGL
few clouds at 2600 feet AGL
overcast cloud deck at 8000 feet AGL
Weather: -TSRA  (light rain associated with thunderstorm(s))

METAR text: FZAA 211500Z 36012KT 3000 -TSRA SCT014 FEW026CB OVC080 22/22 Q1015 BECMG 5000
Conditions at: FZAA (KINSHASA/N'DJILI, CD) observed 1500 UTC 21 February 2019
Temperature: 22.0°C (72°F)
Dewpoint: 22.0°C (72°F) [RH = 100%]
Pressure (altimeter): 29.97 inches Hg (1015.0 mb)
Winds: from the N (360 degrees) at 14 MPH (12 knots; 6.2 m/s)
Visibility: 1.86 miles (2.99 km)
Ceiling: 8000 feet AGL
Clouds: scattered clouds at 1400 feet AGL
few clouds at 2600 feet AGL
overcast cloud deck at 8000 feet AGL
Weather: -TSRA  (light rain associated with thunderstorm(s))

METAR text: FZAA 211430Z 36018KT 1500 -TSRA SCT014 FEW026CB OVC080 22/22 Q1014 BECMG 3000
Conditions at: FZAA (KINSHASA/N'DJILI, CD) observed 1430 UTC 21 February 2019
Temperature: 22.0°C (72°F)
Dewpoint: 22.0°C (72°F) [RH = 100%]
Pressure (altimeter): 29.94 inches Hg (1014.0 mb)
Winds: from the N (360 degrees) at 21 MPH (18 knots; 9.3 m/s)
Visibility: 0.93 miles (1.50 km)
Ceiling: 8000 feet AGL
Clouds: scattered clouds at 1400 feet AGL
few clouds at 2600 feet AGL
overcast cloud deck at 8000 feet AGL
Weather: -TSRA  (light rain associated with thunderstorm(s))

METAR text: FZAA 211400Z 09020KT 0800 TSRA SCT014 FEW026CB OVC080 22/22 Q1012 BECMG 1500
Conditions at: FZAA (KINSHASA/N'DJILI, CD) observed 1400 UTC 21 February 2019
Temperature: 22.0°C (72°F)
Dewpoint: 22.0°C (72°F) [RH = 100%]
Pressure (altimeter): 29.88 inches Hg (1012.0 mb)
Winds: from the E (90 degrees) at 23 MPH (20 knots; 10.3 m/s)
Visibility: 0.50 miles (0.80 km)
Ceiling: 8000 feet AGL
Clouds: scattered clouds at 1400 feet AGL
few clouds at 2600 feet AGL
overcast cloud deck at 8000 feet AGL
Weather: TSRA  (rain associated with thunderstorm(s))

METAR text: FZAA 211330Z 06040KT 3000 TSRA SCT022 FEW028CB BKN100 30/22 Q1012 BECMG 1500
Conditions at: FZAA (KINSHASA/N'DJILI, CD) observed 1330 UTC 21 February 2019
Temperature: 30.0°C (86°F)
Dewpoint: 22.0°C (72°F) [RH = 62%]
Pressure (altimeter): 29.88 inches Hg (1012.0 mb)
Winds: from the ENE (60 degrees) at 46 MPH (40 knots; 20.6 m/s)
Visibility: 1.86 miles (2.99 km)
Ceiling: 10000 feet AGL
Clouds: scattered clouds at 2200 feet AGL
few clouds at 2800 feet AGL
broken clouds at 10000 feet AGL
Weather: TSRA  (rain associated with thunderstorm(s))

METAR text: FZAA 211310Z 18008KT 7000 TS SCT022 FEW030CB BKN110 30/22 Q1011 BECMG TSRA
Conditions at: FZAA (KINSHASA/N'DJILI, CD) observed 1310 UTC 21 February 2019
Temperature: 30.0°C (86°F)
Dewpoint: 22.0°C (72°F) [RH = 62%]
Pressure (altimeter): 29.85 inches Hg (1011.0 mb)
Winds: from the S (180 degrees) at 9 MPH (8 knots; 4.1 m/s)
Visibility: 4 miles ( 7 km)
Ceiling: 11000 feet AGL
Clouds: scattered clouds at 2200 feet AGL
few clouds at 3000 feet AGL
broken clouds at 11000 feet AGL
Weather: TS  (thunderstorm)

METAR text: FZAA 211300Z 23008KT 7000 SCT022 FEW030CB BKN110 30/22 Q1011 TEMPO TS
Conditions at: FZAA (KINSHASA/N'DJILI, CD) observed 1300 UTC 21 February 2019
Temperature: 30.0°C (86°F)
Dewpoint: 22.0°C (72°F) [RH = 62%]
Pressure (altimeter): 29.85 inches Hg (1011.0 mb)
Winds: from the SW (230 degrees) at 9 MPH (8 knots; 4.1 m/s)
Visibility: 4 miles ( 7 km)
Ceiling: 11000 feet AGL
Clouds: scattered clouds at 2200 feet AGL
few clouds at 3000 feet AGL
broken clouds at 11000 feet AGL
Weather: no significant weather observed at this time

METAR text: FZAA 211200Z 23004KT 6000 SCT022 BKN100 30/23 Q1011 NOSIG
Conditions at: FZAA (KINSHASA/N'DJILI, CD) observed 1200 UTC 21 February 2019
Temperature: 30.0°C (86°F)
Dewpoint: 23.0°C (73°F) [RH = 66%]
Pressure (altimeter): 29.85 inches Hg (1011.0 mb)
Winds: from the SW (230 degrees) at 5 MPH (4 knots; 2.1 m/s)
Visibility: 4 miles ( 6 km)
Ceiling: 10000 feet AGL
Clouds: scattered clouds at 2200 feet AGL
broken clouds at 10000 feet AGL
Weather: no significant weather observed at this time

METAR text: FZAA 211100Z 00000KT 5000 BR SCT022 OVC100 29/24 Q1012 BECMG 6000 NSW
Conditions at: FZAA (KINSHASA/N'DJILI, CD) observed 1100 UTC 21 February 2019
Temperature: 29.0°C (84°F)
Dewpoint: 24.0°C (75°F) [RH = 74%]
Pressure (altimeter): 29.88 inches Hg (1012.0 mb)
Winds: calm
Visibility: 3 miles ( 5 km)
Ceiling: 10000 feet AGL
Clouds: scattered clouds at 2200 feet AGL
overcast cloud deck at 10000 feet AGL
Weather: BR  (mist)

METAR text: FZAA 211000Z 34006KT 5000 BR SCT022 OVC100 28/24 Q1013 NOSIG
Conditions at: FZAA (KINSHASA/N'DJILI, CD) observed 1000 UTC 21 February 2019
Temperature: 28.0°C (82°F)
Dewpoint: 24.0°C (75°F) [RH = 79%]
Pressure (altimeter): 29.91 inches Hg (1013.0 mb)
Winds: from the NNW (340 degrees) at 7 MPH (6 knots; 3.1 m/s)
Visibility: 3 miles ( 5 km)
Ceiling: 10000 feet AGL
Clouds: scattered clouds at 2200 feet AGL
overcast cloud deck at 10000 feet AGL
Weather: BR  (mist)

METAR text: FZAA 210900Z 00000KT 4000 BR SCT022 BKN100 28/24 Q1014 NOSIG
Conditions at: FZAA (KINSHASA/N'DJILI, CD) observed 0900 UTC 21 February 2019
Temperature: 28.0°C (82°F)
Dewpoint: 24.0°C (75°F) [RH = 79%]
Pressure (altimeter): 29.94 inches Hg (1014.0 mb)
Winds: calm
Visibility: 2.49 miles (4.01 km)
Ceiling: 10000 feet AGL
Clouds: scattered clouds at 2200 feet AGL
broken clouds at 10000 feet AGL
Weather: BR  (mist)

METAR text: FZAA 210800Z 01004KT 4500 BR SCT018 BKN020 27/25 Q1014 NOSIG
Conditions at: FZAA (KINSHASA/N'DJILI, CD) observed 0800 UTC 21 February 2019
Temperature: 27.0°C (81°F)
Dewpoint: 25.0°C (77°F) [RH = 89%]
Pressure (altimeter): 29.94 inches Hg (1014.0 mb)
Winds: from the N (10 degrees) at 5 MPH (4 knots; 2.1 m/s)
Visibility: 2.80 miles (4.51 km)
Ceiling: 2000 feet AGL
Clouds: scattered clouds at 1800 feet AGL
broken clouds at 2000 feet AGL
Weather: BR  (mist)

METAR text: FZAA 210600Z 22004KT 6000 OVC016 25/22 Q1011 NOSIG
Conditions at: FZAA (KINSHASA/N'DJILI, CD) observed 0600 UTC 21 February 2019
Temperature: 25.0°C (77°F)
Dewpoint: 22.0°C (72°F) [RH = 83%]
Pressure (altimeter): 29.85 inches Hg (1011.0 mb)
Winds: from the SW (220 degrees) at 5 MPH (4 knots; 2.1 m/s)
Visibility: 4 miles ( 6 km)
Ceiling: 1600 feet AGL
Clouds: overcast cloud deck at 1600 feet AGL
Weather: no significant weather observed at this time

METAR text: FZAA 210500Z 18006KT 7000 BKN016 25/22 Q1011 NOSIG
Conditions at: FZAA (KINSHASA/N'DJILI, CD) observed 0500 UTC 21 February 2019
Temperature: 25.0°C (77°F)
Dewpoint: 22.0°C (72°F) [RH = 83%]
Pressure (altimeter): 29.85 inches Hg (1011.0 mb)
Winds: from the S (180 degrees) at 7 MPH (6 knots; 3.1 m/s)
Visibility: 4 miles ( 7 km)
Ceiling: 1600 feet AGL
Clouds: broken clouds at 1600 feet AGL
Weather: no significant weather observed at this time

METAR text: FZAA 210400Z 22004KT 7000 SCT016 BKN100 25/22 Q1010 NOSIG
Conditions at: FZAA (KINSHASA/N'DJILI, CD) observed 0400 UTC 21 February 2019
Temperature: 25.0°C (77°F)
Dewpoint: 22.0°C (72°F) [RH = 83%]
Pressure (altimeter): 29.82 inches Hg (1010.0 mb)
Winds: from the SW (220 degrees) at 5 MPH (4 knots; 2.1 m/s)
Visibility: 4 miles ( 7 km)
Ceiling: 10000 feet AGL
Clouds: scattered clouds at 1600 feet AGL
broken clouds at 10000 feet AGL
Weather: no significant weather observed at this time

METAR text: FZAA 210300Z 24004KT 7000 SCT016 BKN100 25/23 Q1010 NOSIG
Conditions at: FZAA (KINSHASA/N'DJILI, CD) observed 0300 UTC 21 February 2019
Temperature: 25.0°C (77°F)
Dewpoint: 23.0°C (73°F) [RH = 89%]
Pressure (altimeter): 29.82 inches Hg (1010.0 mb)
Winds: from the WSW (240 degrees) at 5 MPH (4 knots; 2.1 m/s)
Visibility: 4 miles ( 7 km)
Ceiling: 10000 feet AGL
Clouds: scattered clouds at 1600 feet AGL
broken clouds at 10000 feet AGL
Weather: no significant weather observed at this time

METAR text: FZAA 210200Z 00000KT 7000 SCT016 BKN100 25/24 Q1011 NOSIG
Conditions at: FZAA (KINSHASA/N'DJILI, CD) observed 0200 UTC 21 February 2019
Temperature: 25.0°C (77°F)
Dewpoint: 24.0°C (75°F) [RH = 94%]
Pressure (altimeter): 29.85 inches Hg (1011.0 mb)
Winds: calm
Visibility: 4 miles ( 7 km)
Ceiling: 10000 feet AGL
Clouds: scattered clouds at 1600 feet AGL
broken clouds at 10000 feet AGL
Weather: no significant weather observed at this time

METAR text: FZAA 210100Z 00000KT 8000 SCT016 BKN100 27/24 Q1011 NOSIG
Conditions at: FZAA (KINSHASA/N'DJILI, CD) observed 0100 UTC 21 February 2019
Temperature: 27.0°C (81°F)
Dewpoint: 24.0°C (75°F) [RH = 84%]
Pressure (altimeter): 29.85 inches Hg (1011.0 mb)
Winds: calm
Visibility: 5 miles ( 8 km)
Ceiling: 10000 feet AGL
Clouds: scattered clouds at 1600 feet AGL
broken clouds at 10000 feet AGL
Weather: no significant weather observed at this time

METAR text: FZAA 210000Z 00000KT 8000 SCT016 BKN100 26/24 Q1011 NOSIG
Conditions at: FZAA (KINSHASA/N'DJILI, CD) observed 0000 UTC 21 February 2019
Temperature: 26.0°C (79°F)
Dewpoint: 24.0°C (75°F) [RH = 89%]
Pressure (altimeter): 29.85 inches Hg (1011.0 mb)
Winds: calm
Visibility: 5 miles ( 8 km)
Ceiling: 10000 feet AGL
Clouds: scattered clouds at 1600 feet AGL
broken clouds at 10000 feet AGL
Weather: no significant weather observed at this time

METAR text: FZAA 202300Z 00000KT 7000 SCT016 BKN100 27/24 Q1012 NOSIG
Conditions at: FZAA (KINSHASA/N'DJILI, CD) observed 2300 UTC 20 February 2019
Temperature: 27.0°C (81°F)
Dewpoint: 24.0°C (75°F) [RH = 84%]
Pressure (altimeter): 29.88 inches Hg (1012.0 mb)
Winds: calm
Visibility: 4 miles ( 7 km)
Ceiling: 10000 feet AGL
Clouds: scattered clouds at 1600 feet AGL
broken clouds at 10000 feet AGL
Weather: no significant weather observed at this time

METAR text: FZAA 202200Z 00000KT 8000 SCT016 BKN100 27/24 Q1012 NOSIG
Conditions at: FZAA (KINSHASA/N'DJILI, CD) observed 2200 UTC 20 February 2019
Temperature: 27.0°C (81°F)
Dewpoint: 24.0°C (75°F) [RH = 84%]
Pressure (altimeter): 29.88 inches Hg (1012.0 mb)
Winds: calm
Visibility: 5 miles ( 8 km)
Ceiling: 10000 feet AGL
Clouds: scattered clouds at 1600 feet AGL
broken clouds at 10000 feet AGL
Weather: no significant weather observed at this time

METAR text: FZAA 202100Z 27004KT 9000 SCT018 FEW028CB BKN100 27/24 Q1012 CB SECT W-NW NOSIG
Conditions at: FZAA (KINSHASA/N'DJILI, CD) observed 2100 UTC 20 February 2019
Temperature: 27.0°C (81°F)
Dewpoint: 24.0°C (75°F) [RH = 84%]
Pressure (altimeter): 29.88 inches Hg (1012.0 mb)
Winds: from the W (270 degrees) at 5 MPH (4 knots; 2.1 m/s)
Visibility: 6 miles ( 9 km)
Ceiling: 10000 feet AGL
Clouds: scattered clouds at 1800 feet AGL
few clouds at 2800 feet AGL
broken clouds at 10000 feet AGL
Weather: no significant weather observed at this time

METAR text: FZAA 202000Z 00000KT 9000 SCT018 BKN100 28/24 Q1010 NOSIG
Conditions at: FZAA (KINSHASA/N'DJILI, CD) observed 2000 UTC 20 February 2019
Temperature: 28.0°C (82°F)
Dewpoint: 24.0°C (75°F) [RH = 79%]
Pressure (altimeter): 29.82 inches Hg (1010.0 mb)
Winds: calm
Visibility: 6 miles ( 9 km)
Ceiling: 10000 feet AGL
Clouds: scattered clouds at 1800 feet AGL
broken clouds at 10000 feet AGL
Weather: no significant weather observed at this time

METAR text: FZAA 201900Z 18006KT 9000 SCT018BKN100 28/24 Q1009 NOSIG
Conditions at: FZAA (KINSHASA/N'DJILI, CD) observed 1900 UTC 20 February 2019
Temperature: 28.0°C (82°F)
Dewpoint: 24.0°C (75°F) [RH = 79%]
Pressure (altimeter): 29.79 inches Hg (1009.0 mb)
Winds: from the S (180 degrees) at 7 MPH (6 knots; 3.1 m/s)
Visibility: 6 miles ( 9 km)
Ceiling: 10000 feet AGL
Clouds: broken clouds at 10000 feet AGL
Weather: no significant weather observed at this time

METAR text: FZAA 201800Z 17002KT 7000 SCT018 FEW028CB BKN100 29/24 Q1008 RETS CB SECT SW-NW NOSIG
Conditions at: FZAA (KINSHASA/N'DJILI, CD) observed 1800 UTC 20 February 2019
Temperature: 29.0°C (84°F)
Dewpoint: 24.0°C (75°F) [RH = 74%]
Pressure (altimeter): 29.76 inches Hg (1008.0 mb)
Winds: from the S (170 degrees) at 2 MPH (2 knots; 1.0 m/s)
Visibility: 4 miles ( 7 km)
Ceiling: 10000 feet AGL
Clouds: scattered clouds at 1800 feet AGL
few clouds at 2800 feet AGL
broken clouds at 10000 feet AGL
Weather: no significant weather observed at this time

METAR text: FZAA 201730Z 19004KT 7000 SCT018 FEW028CB BKN100 30/24 Q1007 RETS SECT CB SW-NW NOSIG
Conditions at: FZAA (KINSHASA/N'DJILI, CD) observed 1730 UTC 20 February 2019
Temperature: 30.0°C (86°F)
Dewpoint: 24.0°C (75°F) [RH = 70%]
Pressure (altimeter): 29.73 inches Hg (1007.0 mb)
Winds: from the S (190 degrees) at 5 MPH (4 knots; 2.1 m/s)
Visibility: 4 miles ( 7 km)
Ceiling: 10000 feet AGL
Clouds: scattered clouds at 1800 feet AGL
few clouds at 2800 feet AGL
broken clouds at 10000 feet AGL
Weather: no significant weather observed at this time

METAR text: FZAA 201700Z 18004KT 7000 TS SCT018 FZW030CB BKN100 30/24 Q1007 BECMG NSW
Conditions at: FZAA (KINSHASA/N'DJILI, CD) observed 1700 UTC 20 February 2019
Temperature: 30.0°C (86°F)
Dewpoint: 24.0°C (75°F) [RH = 70%]
Pressure (altimeter): 29.73 inches Hg (1007.0 mb)
Winds: from the S (180 degrees) at 5 MPH (4 knots; 2.1 m/s)
Visibility: 4 miles ( 7 km)
Ceiling: 10000 feet AGL
Clouds: scattered clouds at 1800 feet AGL
broken clouds at 10000 feet AGL
Weather: TS  (thunderstorm)

METAR text: FZAA 201600Z 09004KT 7000 TS SCT020 FEW030CB BKN100 30/24 Q1007 CB SECT N/ SW/W NOSIG
Conditions at: FZAA (KINSHASA/N'DJILI, CD) observed 1600 UTC 20 February 2019
Temperature: 30.0°C (86°F)
Dewpoint: 24.0°C (75°F) [RH = 70%]
Pressure (altimeter): 29.73 inches Hg (1007.0 mb)
Winds: from the E (90 degrees) at 5 MPH (4 knots; 2.1 m/s)
Visibility: 4 miles ( 7 km)
Ceiling: 10000 feet AGL
Clouds: scattered clouds at 2000 feet AGL
few clouds at 3000 feet AGL
broken clouds at 10000 feet AGL
Weather: TS  (thunderstorm)

METAR text: FZAA 201500Z 36004KT 7000 TS FEW020 FEW030CB SCT100 30/22 Q1008 NOSIG
Conditions at: FZAA (KINSHASA/N'DJILI, CD) observed 1500 UTC 20 February 2019
Temperature: 30.0°C (86°F)
Dewpoint: 22.0°C (72°F) [RH = 62%]
Pressure (altimeter): 29.76 inches Hg (1008.0 mb)
Winds: from the N (360 degrees) at 5 MPH (4 knots; 2.1 m/s)
Visibility: 4 miles ( 7 km)
Ceiling: at least 12,000 feet AGL
Clouds: few clouds at 2000 feet AGL
few clouds at 3000 feet AGL
scattered clouds at 10000 feet AGL
Weather: TS  (thunderstorm)

Forecast for: FZAA (KINSHASA/N'DJILI, CD)
Text: TAF FZAA 212300Z 2200/2306 21004KT 7000 BKN016
Forecast period: 0000 to 1000 UTC 22 February 2019
Forecast type: FROM: standard forecast or significant change
Winds: from the SSW (210 degrees) at 5 MPH (4 knots; 2.1 m/s)
Visibility: 4 miles (7 km)
Ceiling: 1600 feet AGL
Clouds: broken clouds at 1600 feet AGL
Weather: no significant weather forecast for this period
Text: BECMG 2210/2212 33010KT SCT024 FEW030CB
Forecast period: 1000 to 1800 UTC 22 February 2019
Forecast type: BECOMING: Conditions expected to become as follows by 1200 UTC 22 February 2019
Winds: from the NNW (330 degrees) at 12 MPH (10 knots; 5.1 m/s)
Visibility: 4 miles (7 km)
Ceiling: at least 12,000 feet AGL
Clouds: scattered clouds at 2400 feet AGL
few clouds at 3000 feet AGL
Weather: no significant weather forecast for this period
Text: PROB30
Forecast period: 1500 to 1800 UTC 22 February 2019
Forecast type: TEMPORARY: The following changes expected for less than half the time period
Visibility: missing
Ceiling: unknown
Clouds: missing
Weather: TS  (thunderstorm)
Text: TEMPO 2215/2218 TS
Forecast period: 1800 UTC 22 February 2019 to 0300 UTC 23 February 2019
Forecast type: BECOMING: Conditions expected to become as follows by 2000 UTC 22 February 2019
Winds: from the WSW (240 degrees) at 2 MPH (2 knots; 1.0 m/s)
Visibility: 4 miles (7 km)
Ceiling: at least 12,000 feet AGL
Clouds: scattered clouds at 1800 feet AGL
Weather: no significant weather forecast for this period
Text: BECMG 2218/2220 24002KT SCT018
Forecast period: 0300 to 0600 UTC 23 February 2019
Forecast type: BECOMING: Conditions expected to become as follows by 0500 UTC 23 February 2019
Winds: from the WSW (240 degrees) at 2 MPH (2 knots; 1.0 m/s)
Visibility: 4 miles (7 km)
Ceiling: 1600 feet AGL
Clouds: broken clouds at 1600 feet AGL
Weather: no significant weather forecast for this period